Time;durP1;ratioP1;P1;durP2;ratioP2;P2;SDS_P1;SDS_P2;PMS_P1;PMS_P2;Temp;Humidity;BMP_temperature;BMP_pressure;BME280_temperature;BME280_humidity;BME280_pressure;Samples;Min_cycle;Max_cycle;Signal;HPM_P1;HPM_P2
2022/09/24 00:01:12;;;;;;;21.10;16.45;;;15.80;82.90;;;;;;5114778;28;20028;-64
2022/09/24 00:03:39;;;;;;;21.38;16.42;;;15.80;82.30;;;;;;5115014;28;20037;-64
2022/09/24 00:06:06;;;;;;;21.95;16.05;;;15.80;82.30;;;;;;5114083;28;20035;-64
2022/09/24 00:08:32;;;;;;;20.02;16.15;;;15.80;82.30;;;;;;5113221;28;20024;-64
2022/09/24 00:11:02;;;;;;;24.23;18.73;;;15.80;82.30;;;;;;5114862;28;20061;-64
2022/09/24 00:13:29;;;;;;;21.13;16.15;;;15.80;82.40;;;;;;5114745;28;20085;-64
2022/09/24 00:15:55;;;;;;;21.25;16.25;;;15.80;82.50;;;;;;5112816;28;20063;-64
2022/09/24 00:18:20;;;;;;;21.70;16.02;;;15.80;82.50;;;;;;5114031;27;20088;-64
2022/09/24 00:20:47;;;;;;;23.70;15.95;;;15.80;82.60;;;;;;5114755;28;20031;-65
2022/09/24 00:23:13;;;;;;;22.27;17.13;;;15.80;82.60;;;;;;5113764;28;20095;-64
2022/09/24 00:28:25;;;;;;;21.95;17.27;;;15.70;82.60;;;;;;5110434;28;20102;-64
2022/09/24 00:30:51;;;;;;;22.45;17.52;;;15.80;82.70;;;;;;5113076;28;20092;-64
2022/09/24 00:33:17;;;;;;;21.88;17.20;;;15.80;82.70;;;;;;5113579;28;20042;-64
2022/09/24 00:35:42;;;;;;;23.05;17.40;;;15.80;82.70;;;;;;5112737;28;20055;-64
2022/09/24 00:38:08;;;;;;;21.90;16.25;;;15.80;82.70;;;;;;5114328;28;20469;-64
2022/09/24 00:40:36;;;;;;;22.05;16.77;;;15.80;82.70;;;;;;5127015;28;20032;-64
2022/09/24 00:43:24;;;;;;;22.63;16.88;;;15.80;82.80;;;;;;5114447;28;20035;-64
2022/09/24 00:45:57;;;;;;;22.30;16.92;;;15.80;82.70;;;;;;5113924;28;20024;-64
2022/09/24 00:48:23;;;;;;;21.95;16.55;;;15.70;82.70;;;;;;5107533;28;20471;-64
2022/09/24 00:50:49;;;;;;;22.77;16.33;;;15.80;82.70;;;;;;5114139;28;20462;-64
2022/09/24 00:53:27;;;;;;;21.02;16.10;;;15.80;82.80;;;;;;5113712;28;20032;-65
2022/09/24 00:55:54;;;;;;;19.77;15.45;;;15.70;83.10;;;;;;5113146;28;20036;-64
2022/09/24 00:58:22;;;;;;;24.25;16.95;;;15.70;82.70;;;;;;5114252;28;20137;-64
2022/09/24 01:00:50;;;;;;;20.65;16.25;;;15.70;82.80;;;;;;5112234;28;20064;-64
2022/09/24 01:03:20;;;;;;;24.38;17.77;;;15.70;82.90;;;;;;5113699;28;20478;-64
2022/09/24 01:05:46;;;;;;;24.08;17.10;;;15.70;82.90;;;;;;5113296;28;20027;-64
2022/09/24 01:08:13;;;;;;;23.90;17.17;;;15.70;82.90;;;;;;5114363;28;20114;-64
2022/09/24 01:10:49;;;;;;;22.48;17.88;;;15.70;82.90;;;;;;5112704;28;20425;-64
2022/09/24 01:13:40;;;;;;;22.83;16.77;;;15.70;82.90;;;;;;5113441;28;20041;-64
2022/09/24 01:16:35;;;;;;;22.73;16.38;;;15.70;82.90;;;;;;5113382;28;20174;-64
2022/09/24 01:19:17;;;;;;;25.77;17.85;;;15.70;82.90;;;;;;5114221;28;20061;-64
2022/09/24 01:21:55;;;;;;;24.23;17.92;;;15.70;82.90;;;;;;5113047;28;20436;-64
2022/09/24 01:24:47;;;;;;;24.42;17.58;;;15.60;82.90;;;;;;5114114;28;20027;-64
2022/09/24 01:27:22;;;;;;;23.98;17.60;;;15.60;82.90;;;;;;5117516;28;20551;-64
2022/09/24 01:30:04;;;;;;;25.50;18.20;;;15.60;82.90;;;;;;5116462;28;20367;-65
2022/09/24 01:32:37;;;;;;;25.13;17.80;;;15.60;82.90;;;;;;5115056;27;20036;-64
2022/09/24 01:35:13;;;;;;;24.75;17.50;;;15.60;83.00;;;;;;5106991;28;20436;-64
2022/09/24 01:37:43;;;;;;;27.75;19.00;;;15.60;83.00;;;;;;5117729;28;20468;-64
2022/09/24 01:40:10;;;;;;;26.40;18.48;;;15.60;83.00;;;;;;5118186;27;20043;-64
2022/09/24 01:42:38;;;;;;;26.50;19.17;;;15.60;82.90;;;;;;5116408;28;20039;-64
2022/09/24 01:45:05;;;;;;;27.00;19.42;;;15.60;83.00;;;;;;5116789;28;20023;-64
2022/09/24 01:47:37;;;;;;;27.98;20.10;;;15.60;82.90;;;;;;5125291;27;20030;-64
2022/09/24 01:50:03;;;;;;;26.02;18.10;;;15.60;83.00;;;;;;5104007;28;20027;-64
2022/09/24 01:52:53;;;;;;;25.67;19.50;;;15.60;82.90;;;;;;5116286;28;20375;-64
2022/09/24 01:55:23;;;;;;;26.35;19.20;;;15.60;82.90;;;;;;5109965;28;20093;-64
2022/09/24 01:57:55;;;;;;;27.88;20.58;;;15.60;82.90;;;;;;5117820;28;20032;-64
2022/09/24 02:00:21;;;;;;;28.58;19.80;;;15.60;82.90;;;;;;5114743;27;20067;-64
2022/09/24 02:02:56;;;;;;;26.17;19.58;;;15.60;82.90;;;;;;5133233;27;20047;-64
2022/09/24 02:05:33;;;;;;;24.92;18.33;;;15.60;82.90;;;;;;5117037;28;20027;-64
2022/09/24 02:08:20;;;;;;;26.08;18.90;;;15.60;83.50;;;;;;5117011;28;20035;-64
2022/09/24 02:10:58;;;;;;;25.88;18.92;;;15.60;82.80;;;;;;5115291;27;20507;-64
2022/09/24 02:13:30;;;;;;;25.02;18.95;;;15.60;82.80;;;;;;5115407;28;20172;-64
2022/09/24 02:16:01;;;;;;;28.67;19.60;;;15.50;82.80;;;;;;5119889;27;20031;-64
2022/09/24 02:18:33;;;;;;;27.38;19.75;;;15.50;82.90;;;;;;5118107;27;20105;-64
2022/09/24 02:21:02;;;;;;;24.80;18.67;;;15.50;82.80;;;;;;5115620;27;20035;-64
2022/09/24 02:23:30;;;;;;;24.48;17.88;;;15.50;82.90;;;;;;5116729;28;20027;-64
2022/09/24 02:26:00;;;;;;;25.83;18.85;;;15.50;82.90;;;;;;5115440;28;20339;-64
2022/09/24 02:28:26;;;;;;;24.08;17.52;;;15.50;82.90;;;;;;5116765;28;20034;-64
2022/09/24 02:30:59;;;;;;;24.30;18.45;;;15.50;82.90;;;;;;5114406;28;20027;-64
2022/09/24 02:36:11;;;;;;;25.85;17.45;;;15.50;82.90;;;;;;5114377;28;20043;-65
2022/09/24 02:38:37;;;;;;;21.30;16.50;;;15.50;82.90;;;;;;5115362;28;20042;-64
2022/09/24 02:41:06;;;;;;;26.15;18.80;;;15.50;83.00;;;;;;5115325;27;20110;-64
2022/09/24 02:43:33;;;;;;;24.42;18.35;;;15.50;83.00;;;;;;5115929;28;20309;-64
2022/09/24 02:45:58;;;;;;;24.08;16.42;;;15.50;82.90;;;;;;5115286;28;20023;-64
2022/09/24 02:48:24;;;;;;;22.20;16.55;;;15.50;82.80;;;;;;5121488;27;20019;-64
2022/09/24 02:50:49;;;;;;;22.70;17.20;;;15.50;82.70;;;;;;5121336;27;20059;-65
2022/09/24 02:53:15;;;;;;;20.42;15.88;;;15.50;82.80;;;;;;5115875;28;20031;-64
2022/09/24 02:55:41;;;;;;;22.02;16.35;;;15.50;82.80;;;;;;5114871;27;20356;-64
2022/09/24 02:58:06;;;;;;;20.95;15.65;;;15.50;82.80;;;;;;5114981;28;20040;-64
2022/09/24 03:00:32;;;;;;;22.80;15.88;;;15.50;82.80;;;;;;5117605;27;20110;-64
2022/09/24 03:02:58;;;;;;;24.58;16.00;;;15.50;82.70;;;;;;5115638;28;20026;-64
2022/09/24 03:05:23;;;;;;;21.77;14.48;;;15.50;82.70;;;;;;5113549;28;20036;-64
2022/09/24 03:07:50;;;;;;;19.65;14.75;;;15.50;82.70;;;;;;5114723;28;20080;-64
2022/09/24 03:10:15;;;;;;;21.65;14.13;;;15.50;82.70;;;;;;5114001;28;20048;-64
2022/09/24 03:12:42;;;;;;;19.45;14.63;;;15.50;82.70;;;;;;5115547;28;20027;-64
2022/09/24 03:15:09;;;;;;;21.00;15.55;;;15.50;82.70;;;;;;5115236;28;20118;-64
2022/09/24 03:17:35;;;;;;;20.92;15.10;;;15.40;82.70;;;;;;5115669;28;20040;-64
2022/09/24 03:20:01;;;;;;;20.35;14.88;;;15.50;82.70;;;;;;5117590;27;20039;-64
2022/09/24 03:22:27;;;;;;;18.50;13.48;;;15.50;82.70;;;;;;5114387;28;20029;-64
2022/09/24 03:24:53;;;;;;;17.85;13.23;;;15.50;82.80;;;;;;5113727;28;20092;-64
2022/09/24 03:27:18;;;;;;;19.48;13.55;;;15.40;82.70;;;;;;5114571;27;20486;-64
2022/09/24 03:32:32;;;;;;;17.98;12.35;;;15.50;82.70;;;;;;5114965;28;20031;-64
2022/09/24 03:35:00;;;;;;;18.77;13.00;;;15.40;82.60;;;;;;5115395;28;20118;-64
2022/09/24 03:37:25;;;;;;;17.02;12.43;;;15.50;82.60;;;;;;5115176;28;20031;-64
2022/09/24 03:39:51;;;;;;;18.00;11.85;;;15.40;82.50;;;;;;5118352;27;20360;-64
2022/09/24 03:42:17;;;;;;;18.77;12.70;;;15.40;82.50;;;;;;5120901;27;20020;-64
2022/09/24 03:44:42;;;;;;;17.73;12.65;;;15.40;82.50;;;;;;5122210;27;20084;-64
2022/09/24 03:47:08;;;;;;;16.50;11.50;;;15.40;82.50;;;;;;5115200;28;20041;-64
2022/09/24 03:49:34;;;;;;;18.27;12.55;;;15.40;82.60;;;;;;5113359;27;20106;-64
2022/09/24 03:52:00;;;;;;;18.00;13.23;;;15.40;82.60;;;;;;5114377;28;20115;-64
2022/09/24 03:54:25;;;;;;;16.08;11.43;;;15.40;82.50;;;;;;5113336;28;20015;-64
2022/09/24 03:56:51;;;;;;;17.75;12.48;;;15.40;82.60;;;;;;5125850;27;20451;-64
2022/09/24 03:59:17;;;;;;;17.20;12.15;;;15.40;82.60;;;;;;5117929;27;20114;-64
2022/09/24 04:01:42;;;;;;;16.50;12.40;;;15.40;82.60;;;;;;5118813;27;20027;-64
2022/09/24 04:04:09;;;;;;;18.67;12.52;;;15.40;82.60;;;;;;5115292;27;20028;-64
2022/09/24 04:06:34;;;;;;;16.77;12.23;;;15.40;82.60;;;;;;5119130;27;20116;-64
2022/09/24 04:09:00;;;;;;;17.65;12.23;;;15.40;82.60;;;;;;5118902;27;20031;-64
2022/09/24 04:11:25;;;;;;;18.23;12.40;;;15.40;82.60;;;;;;5114153;27;20063;-64
2022/09/24 04:13:52;;;;;;;18.20;11.98;;;15.40;82.60;;;;;;5114930;28;20034;-64
2022/09/24 04:16:17;;;;;;;18.65;12.95;;;15.40;82.60;;;;;;5120582;27;20524;-64
2022/09/24 04:18:43;;;;;;;17.25;12.13;;;15.40;82.60;;;;;;5099476;28;20111;-64
2022/09/24 04:21:09;;;;;;;16.60;11.63;;;15.40;82.50;;;;;;5093217;28;20460;-64
2022/09/24 04:23:35;;;;;;;16.98;11.68;;;15.40;82.60;;;;;;5102909;28;20016;-64
2022/09/24 04:26:01;;;;;;;17.48;12.43;;;15.40;82.50;;;;;;5094024;28;20016;-64
2022/09/24 04:28:28;;;;;;;17.75;12.85;;;15.40;82.50;;;;;;5098950;28;20063;-64
2022/09/24 04:30:54;;;;;;;18.25;12.15;;;15.40;82.40;;;;;;5096551;28;20028;-64
2022/09/24 04:33:19;;;;;;;18.75;13.27;;;15.40;82.40;;;;;;5108873;28;20024;-64
2022/09/24 04:35:45;;;;;;;18.77;13.52;;;15.40;82.40;;;;;;5099493;28;20088;-64
2022/09/24 04:38:11;;;;;;;18.55;12.95;;;15.40;82.40;;;;;;5099562;28;20031;-64
2022/09/24 04:40:38;;;;;;;18.60;13.65;;;15.40;82.40;;;;;;5101699;28;20104;-64
2022/09/24 04:43:05;;;;;;;18.50;13.23;;;15.40;82.40;;;;;;5112687;28;20030;-64
2022/09/24 04:45:31;;;;;;;19.30;13.60;;;15.40;82.30;;;;;;5105226;28;20028;-64
2022/09/24 04:47:57;;;;;;;19.15;13.77;;;15.40;82.40;;;;;;5112790;28;20024;-64
2022/09/24 04:50:27;;;;;;;19.13;13.90;;;15.40;82.40;;;;;;5112728;28;20479;-64
2022/09/24 04:52:54;;;;;;;17.83;12.57;;;15.40;82.40;;;;;;5112792;28;20026;-64
2022/09/24 04:55:21;;;;;;;19.17;12.95;;;15.30;82.30;;;;;;5118000;28;20284;-64
2022/09/24 04:57:47;;;;;;;18.85;13.52;;;15.30;82.40;;;;;;5111917;28;20028;-64
2022/09/24 05:00:16;;;;;;;19.20;13.80;;;15.30;82.40;;;;;;5113021;28;20115;-64
2022/09/24 05:02:42;;;;;;;18.67;13.27;;;15.30;82.40;;;;;;5118269;28;20024;-64
2022/09/24 05:05:10;;;;;;;19.65;13.77;;;15.30;82.50;;;;;;5116323;28;20095;-64
2022/09/24 05:07:36;;;;;;;20.23;14.50;;;15.30;82.50;;;;;;5115937;27;20034;-65
2022/09/24 05:10:02;;;;;;;17.75;13.70;;;15.30;82.50;;;;;;5115804;27;20020;-64
2022/09/24 05:12:28;;;;;;;20.42;13.52;;;15.30;82.50;;;;;;5117741;27;20390;-65
2022/09/24 05:14:53;;;;;;;16.58;12.43;;;15.30;83.20;;;;;;5116605;27;20047;-64
2022/09/24 05:17:19;;;;;;;19.13;13.90;;;15.30;82.50;;;;;;5113206;28;20052;-64
2022/09/24 05:19:45;;;;;;;19.33;14.27;;;15.30;82.50;;;;;;5110719;28;20032;-64
2022/09/24 05:22:11;;;;;;;20.33;14.32;;;15.30;82.50;;;;;;5111501;28;20031;-64
2022/09/24 05:24:36;;;;;;;18.50;13.32;;;15.30;82.50;;;;;;5112565;28;20034;-64
2022/09/24 05:27:08;;;;;;;19.50;14.75;;;15.30;82.50;;;;;;5117383;28;20030;-64
2022/09/24 05:29:43;;;;;;;18.75;14.10;;;15.30;82.50;;;;;;5116226;27;20027;-64
2022/09/24 05:32:11;;;;;;;19.17;13.20;;;15.30;82.50;;;;;;5116688;28;20470;-64
2022/09/24 05:34:37;;;;;;;19.10;13.85;;;15.30;82.50;;;;;;5117655;28;20452;-64
2022/09/24 05:37:03;;;;;;;19.52;14.60;;;15.30;82.50;;;;;;5117418;27;20115;-64
2022/09/24 05:39:29;;;;;;;20.02;14.30;;;15.30;82.60;;;;;;5122171;27;20024;-64
2022/09/24 05:41:56;;;;;;;20.45;14.02;;;15.30;82.60;;;;;;5117757;27;20443;-64
2022/09/24 05:44:22;;;;;;;19.73;14.68;;;15.30;82.50;;;;;;5117568;28;20030;-64
2022/09/24 05:46:51;;;;;;;19.88;14.43;;;15.30;82.50;;;;;;5117542;28;20336;-64
2022/09/24 05:49:17;;;;;;;21.08;15.15;;;15.30;82.50;;;;;;5117494;28;20055;-64
2022/09/24 05:51:43;;;;;;;19.50;14.43;;;15.30;82.60;;;;;;5118452;27;20397;-64
2022/09/24 05:54:12;;;;;;;20.95;14.45;;;15.30;82.50;;;;;;5117385;28;20157;-64
2022/09/24 05:56:37;;;;;;;20.63;15.02;;;15.30;82.50;;;;;;5119324;27;20047;-64
2022/09/24 05:59:03;;;;;;;19.08;13.40;;;15.30;82.50;;;;;;5117089;27;20055;-64
2022/09/24 06:01:29;;;;;;;21.98;14.27;;;15.30;82.50;;;;;;5118406;27;20020;-63
2022/09/24 06:03:56;;;;;;;19.55;14.27;;;15.30;83.20;;;;;;5117253;28;20027;-64
2022/09/24 06:06:22;;;;;;;17.10;12.38;;;15.40;82.60;;;;;;5116006;28;20428;-64
2022/09/24 06:08:48;;;;;;;18.13;13.40;;;15.30;82.60;;;;;;5116605;28;20031;-65
2022/09/24 06:11:13;;;;;;;18.95;13.32;;;15.40;82.70;;;;;;5114819;28;20028;-64
2022/09/24 06:13:39;;;;;;;18.63;13.60;;;15.40;82.60;;;;;;5114519;28;20032;-65
2022/09/24 06:16:11;;;;;;;17.00;12.52;;;15.40;82.50;;;;;;5116502;27;20069;-64
2022/09/24 06:18:39;;;;;;;17.92;12.80;;;15.40;82.40;;;;;;5116833;28;20032;-64
2022/09/24 06:21:11;;;;;;;16.25;12.73;;;15.40;82.30;;;;;;5116084;28;20465;-64
2022/09/24 06:23:37;;;;;;;19.13;14.02;;;15.50;82.30;;;;;;5116674;28;20118;-65
2022/09/24 06:26:06;;;;;;;18.38;13.30;;;15.50;82.30;;;;;;5115572;28;20470;-64
2022/09/24 06:28:33;;;;;;;20.98;14.18;;;15.50;82.30;;;;;;5126354;27;20027;-64
2022/09/24 06:30:59;;;;;;;17.10;12.70;;;15.50;82.30;;;;;;5117650;27;20023;-64
2022/09/24 06:33:26;;;;;;;17.75;13.93;;;15.50;82.30;;;;;;5098796;28;20027;-64
2022/09/24 06:35:52;;;;;;;21.15;14.20;;;15.50;82.30;;;;;;5115180;28;20032;-64
2022/09/24 06:38:18;;;;;;;19.38;14.10;;;15.50;82.30;;;;;;5119763;27;20439;-64
2022/09/24 06:40:47;;;;;;;19.90;14.30;;;15.50;82.30;;;;;;5127559;27;20032;-64
2022/09/24 06:43:14;;;;;;;19.85;13.95;;;15.50;82.40;;;;;;5119012;27;20115;-66
2022/09/24 06:45:41;;;;;;;21.05;14.88;;;15.50;82.40;;;;;;5128069;27;20026;-64
2022/09/24 06:48:09;;;;;;;18.35;14.23;;;15.50;82.40;;;;;;5116504;27;20020;-64
2022/09/24 06:50:42;;;;;;;19.70;14.68;;;15.50;82.40;;;;;;5116873;28;20040;-64
2022/09/24 06:53:09;;;;;;;20.52;14.40;;;15.50;82.50;;;;;;5117695;27;20111;-64
2022/09/24 06:55:35;;;;;;;19.15;13.93;;;15.40;82.40;;;;;;5117429;27;20467;-64
2022/09/24 06:58:06;;;;;;;19.27;14.48;;;15.40;82.50;;;;;;5116667;28;20046;-64
2022/09/24 07:00:33;;;;;;;19.27;14.57;;;15.40;82.60;;;;;;5116592;28;20101;-64
2022/09/24 07:02:58;;;;;;;18.70;14.15;;;15.40;82.60;;;;;;5116019;28;20034;-64
2022/09/24 07:05:24;;;;;;;21.35;14.73;;;15.40;82.60;;;;;;5116473;28;20024;-64
2022/09/24 07:07:50;;;;;;;19.98;15.05;;;15.40;83.30;;;;;;5115896;28;20028;-64
2022/09/24 07:10:16;;;;;;;22.58;14.77;;;15.40;82.70;;;;;;5115937;28;20475;-64
2022/09/24 07:12:42;;;;;;;19.65;14.68;;;15.40;82.80;;;;;;5115209;27;20031;-65
2022/09/24 07:15:08;;;;;;;21.17;15.88;;;15.40;82.70;;;;;;5120971;27;20108;-63
2022/09/24 07:17:34;;;;;;;20.73;14.60;;;15.40;82.80;;;;;;5115449;28;20032;-63
2022/09/24 07:20:01;;;;;;;108.55;20.38;;;15.30;82.80;;;;;;5115464;27;20031;-63
2022/09/24 07:22:27;;;;;;;33.88;16.38;;;15.40;82.90;;;;;;5115227;28;20509;-63
2022/09/24 07:24:52;;;;;;;33.20;16.42;;;15.40;83.00;;;;;;5115282;28;20087;-63
2022/09/24 07:27:20;;;;;;;28.08;14.38;;;15.40;83.00;;;;;;5121226;27;20024;-63
2022/09/24 07:29:47;;;;;;;56.25;17.27;;;15.40;82.90;;;;;;5115509;28;20033;-63
2022/09/24 07:32:15;;;;;;;29.00;15.23;;;15.40;82.90;;;;;;5114819;28;21330;-63
2022/09/24 07:34:40;;;;;;;21.67;14.30;;;15.40;82.90;;;;;;5115315;28;20034;-63
2022/09/24 07:37:06;;;;;;;21.17;13.73;;;15.50;82.90;;;;;;5114655;27;20024;-63
2022/09/24 07:39:32;;;;;;;20.20;14.73;;;15.50;82.90;;;;;;5115150;28;20042;-63
2022/09/24 07:42:01;;;;;;;18.88;13.60;;;15.50;82.90;;;;;;5113984;28;20071;-63
2022/09/24 07:44:28;;;;;;;19.75;13.68;;;15.50;82.90;;;;;;5116778;27;20027;-63
2022/09/24 07:46:54;;;;;;;19.48;14.55;;;15.50;82.90;;;;;;5111069;28;20099;-62
2022/09/24 07:49:21;;;;;;;18.77;14.23;;;15.50;83.00;;;;;;5112867;28;20046;-62
2022/09/24 07:51:46;;;;;;;17.63;12.50;;;15.50;83.00;;;;;;5114975;28;20032;-62
2022/09/24 07:54:12;;;;;;;18.58;14.18;;;15.50;83.00;;;;;;5113678;28;20027;-62
2022/09/24 07:56:38;;;;;;;21.27;13.90;;;15.50;83.10;;;;;;5114871;28;20042;-62
2022/09/24 07:59:06;;;;;;;19.55;14.18;;;15.40;83.10;;;;;;5112541;28;20023;-62
2022/09/24 08:01:33;;;;;;;19.13;13.82;;;15.50;83.20;;;;;;5113681;28;20020;-64
2022/09/24 08:03:59;;;;;;;19.35;14.95;;;15.50;83.20;;;;;;5113205;27;20031;-64
2022/09/24 08:06:26;;;;;;;21.05;14.57;;;15.50;83.40;;;;;;5110877;28;20031;-64
2022/09/24 08:08:52;;;;;;;18.73;13.25;;;15.50;83.30;;;;;;5126508;27;20023;-64
2022/09/24 08:11:18;;;;;;;19.25;13.88;;;15.50;83.40;;;;;;5115730;27;20028;-64
2022/09/24 08:13:45;;;;;;;18.38;14.20;;;15.50;83.40;;;;;;5119168;27;20422;-64
2022/09/24 08:16:11;;;;;;;20.70;14.40;;;15.50;83.40;;;;;;5119174;27;20034;-64
2022/09/24 08:18:38;;;;;;;18.40;13.48;;;15.50;83.40;;;;;;5122133;27;20031;-64
2022/09/24 08:21:10;;;;;;;19.48;13.70;;;15.50;83.40;;;;;;5119005;27;20054;-65
2022/09/24 08:23:36;;;;;;;18.30;13.77;;;15.50;83.40;;;;;;5113282;28;20031;-64
2022/09/24 08:26:03;;;;;;;18.08;13.48;;;15.60;83.40;;;;;;5114940;28;20081;-63
2022/09/24 08:28:30;;;;;;;17.95;13.93;;;15.50;83.40;;;;;;5115408;28;20031;-64
2022/09/24 08:31:00;;;;;;;19.50;14.27;;;15.50;83.40;;;;;;5111860;28;20041;-64
2022/09/24 08:33:27;;;;;;;17.70;13.37;;;15.60;83.50;;;;;;5115989;28;20028;-63
2022/09/24 08:35:53;;;;;;;20.38;14.48;;;15.60;83.50;;;;;;5112944;28;20034;-63
2022/09/24 08:38:22;;;;;;;18.80;14.13;;;15.60;83.50;;;;;;5130181;27;20130;-65
2022/09/24 08:40:59;;;;;;;19.15;13.90;;;15.60;83.60;;;;;;5114040;28;20105;-64
2022/09/24 08:43:40;;;;;;;19.52;14.60;;;15.60;83.60;;;;;;5113034;28;20278;-64
2022/09/24 08:49:17;;;;;;;17.00;12.77;;;15.60;83.60;;;;;;5113439;28;20436;-64
2022/09/24 08:52:18;;;;;;;20.27;14.68;;;15.60;83.60;;;;;;5098972;28;20039;-64
2022/09/24 08:54:46;;;;;;;18.63;13.23;;;15.60;83.60;;;;;;5120897;28;20160;-64
2022/09/24 08:57:16;;;;;;;19.27;13.13;;;15.60;83.60;;;;;;5112639;28;20016;-64
2022/09/24 08:59:46;;;;;;;16.80;13.32;;;15.60;83.70;;;;;;5117077;28;20035;-64
2022/09/24 09:02:48;;;;;;;18.08;14.40;;;15.60;83.70;;;;;;5116111;28;20024;-65
2022/09/24 09:05:37;;;;;;;20.63;13.00;;;15.60;83.70;;;;;;5114837;28;20023;-64
2022/09/24 09:08:33;;;;;;;18.13;13.85;;;15.60;83.70;;;;;;5114159;28;20080;-64
2022/09/24 09:11:03;;;;;;;17.40;13.23;;;15.60;84.00;;;;;;5105250;28;20023;-64
2022/09/24 09:13:39;;;;;;;17.33;13.65;;;15.60;83.60;;;;;;5113592;28;20027;-66
2022/09/24 09:16:23;;;;;;;17.92;13.23;;;15.60;83.70;;;;;;5102771;28;20035;-64
2022/09/24 09:18:52;;;;;;;18.45;12.60;;;15.70;83.70;;;;;;5108300;28;20456;-64
2022/09/24 09:21:23;;;;;;;16.60;13.10;;;15.70;83.70;;;;;;5113141;28;20131;-65
2022/09/24 09:23:50;;;;;;;18.48;13.48;;;15.70;83.80;;;;;;5127510;27;20035;-64
2022/09/24 09:26:20;;;;;;;17.65;13.60;;;15.70;83.70;;;;;;5114353;28;20034;-65
2022/09/24 09:28:47;;;;;;;19.83;14.20;;;15.70;83.60;;;;;;5112967;28;20100;-65
2022/09/24 09:31:34;;;;;;;17.55;13.35;;;15.70;83.60;;;;;;5114013;28;20134;-65
2022/09/24 09:34:12;;;;;;;17.35;11.93;;;15.70;83.70;;;;;;5120474;28;20100;-65
2022/09/24 09:36:42;;;;;;;15.80;11.40;;;15.70;83.70;;;;;;5112299;28;20406;-65
2022/09/24 09:39:27;;;;;;;15.32;11.88;;;15.70;83.70;;;;;;5112898;28;20359;-64
2022/09/24 09:41:56;;;;;;;16.08;11.68;;;15.80;83.70;;;;;;5114259;28;20407;-65
2022/09/24 09:44:25;;;;;;;16.48;12.52;;;15.80;83.60;;;;;;5113620;28;20038;-64
2022/09/24 09:47:15;;;;;;;14.55;11.35;;;15.80;83.50;;;;;;5122055;27;20047;-63
2022/09/24 09:49:44;;;;;;;16.80;12.00;;;15.80;83.50;;;;;;5114685;28;20027;-64
2022/09/24 09:52:18;;;;;;;16.63;12.85;;;15.80;83.50;;;;;;5118745;27;20107;-64
2022/09/24 09:54:44;;;;;;;16.35;11.93;;;15.80;83.60;;;;;;5117380;28;20020;-64
2022/09/24 09:57:16;;;;;;;16.73;13.25;;;15.80;83.60;;;;;;5113201;27;20355;-63
2022/09/24 09:59:48;;;;;;;19.50;11.70;;;15.80;83.60;;;;;;5119413;27;20046;-64
2022/09/24 10:02:32;;;;;;;15.93;11.80;;;15.80;83.70;;;;;;5115207;27;20047;-63
2022/09/24 10:05:01;;;;;;;19.23;13.05;;;15.80;83.70;;;;;;5115160;28;20038;-63
2022/09/24 10:07:27;;;;;;;17.27;12.30;;;15.80;83.70;;;;;;5114524;27;20027;-63
2022/09/24 10:10:15;;;;;;;15.90;11.38;;;15.80;83.70;;;;;;5116652;28;20042;-63
2022/09/24 10:12:40;;;;;;;16.88;12.65;;;15.80;83.70;;;;;;5116570;28;20024;-63
2022/09/24 10:15:17;;;;;;;17.13;12.07;;;15.80;83.70;;;;;;5116626;28;20418;-63
2022/09/24 10:17:45;;;;;;;17.35;12.50;;;15.80;83.70;;;;;;5115224;28;20081;-63
2022/09/24 10:20:27;;;;;;;20.45;12.90;;;15.80;83.70;;;;;;5115028;28;20031;-64
2022/09/24 10:23:03;;;;;;;16.48;12.48;;;15.80;83.70;;;;;;5117055;28;20028;-63
2022/09/24 10:25:31;;;;;;;17.10;12.73;;;15.80;83.80;;;;;;5116409;28;20333;-63
2022/09/24 10:30:59;;;;;;;19.17;13.25;;;15.80;83.80;;;;;;5116873;28;20317;-63
2022/09/24 10:33:26;;;;;;;;;;;15.90;83.80;;;;;;5115866;28;20031;-63
2022/09/24 10:36:25;;;;;;;14.75;10.90;;;15.80;83.60;;;;;;5116036;28;19989;-63
2022/09/24 10:39:12;;;;;;;16.67;12.52;;;15.80;83.60;;;;;;5108662;28;20051;-63
2022/09/24 10:41:45;;;;;;;18.35;14.00;;;15.90;83.60;;;;;;5116430;28;20059;-63
2022/09/24 10:44:11;;;;;;;21.33;13.75;;;15.90;83.70;;;;;;5115886;28;20084;-63
2022/09/24 10:46:59;;;;;;;17.42;12.18;;;15.90;83.70;;;;;;5114568;28;20111;-63
2022/09/24 10:49:37;;;;;;;16.73;12.80;;;15.90;83.80;;;;;;5115136;28;20027;-63
2022/09/24 10:52:18;;;;;;;16.58;12.65;;;15.90;83.80;;;;;;5115395;27;20027;-63
2022/09/24 10:55:01;;;;;;;17.70;13.35;;;15.90;83.80;;;;;;5115654;28;20031;-64
2022/09/24 10:57:45;;;;;;;16.75;12.20;;;15.90;83.80;;;;;;5114723;27;20020;-64
2022/09/24 11:00:39;;;;;;;18.75;13.43;;;15.90;83.70;;;;;;5111026;28;20023;-63
2022/09/24 11:03:24;;;;;;;20.15;13.65;;;15.90;83.70;;;;;;5115357;28;20073;-64
2022/09/24 11:06:03;;;;;;;19.48;13.48;;;15.90;83.80;;;;;;5128752;27;20039;-68
2022/09/24 11:08:38;;;;;;;16.15;12.52;;;15.90;83.70;;;;;;5114354;28;20049;-63
2022/09/24 11:11:18;;;;;;;16.92;12.98;;;15.90;83.80;;;;;;5111849;28;20055;-70
2022/09/24 11:13:56;;;;;;;18.05;13.35;;;15.90;83.70;;;;;;5114907;28;20041;-63
2022/09/24 11:16:31;;;;;;;18.67;13.80;;;15.90;83.70;;;;;;5115104;28;20386;-62
2022/09/24 11:19:39;;;;;;;18.83;14.20;;;15.90;83.80;;;;;;5115498;28;20028;-62
2022/09/24 11:22:12;;;;;;;16.40;11.88;;;15.90;83.80;;;;;;5072604;28;20464;-62
2022/09/24 11:24:56;;;;;;;17.08;12.95;;;15.90;83.80;;;;;;5073153;28;20037;-62
2022/09/24 11:27:40;;;;;;;19.25;13.68;;;15.90;83.80;;;;;;5079606;28;20468;-62
2022/09/24 11:30:12;;;;;;;18.00;13.77;;;16.00;83.80;;;;;;5071607;28;20392;-62
2022/09/24 11:33:00;;;;;;;17.35;13.23;;;16.00;83.80;;;;;;5070962;28;20375;-62
2022/09/24 11:35:56;;;;;;;18.75;13.55;;;16.00;83.90;;;;;;5084164;28;20040;-62
2022/09/24 11:38:28;;;;;;;18.27;13.50;;;16.00;83.80;;;;;;5079371;28;20409;-62
2022/09/24 11:41:34;;;;;;;19.10;14.75;;;15.90;83.80;;;;;;5074600;28;20061;-61
2022/09/24 11:44:25;;;;;;;19.20;13.75;;;16.00;83.70;;;;;;5002455;28;20026;-63
2022/09/24 11:47:20;;;;;;;18.45;13.20;;;16.00;83.80;;;;;;4995571;28;20029;-62
2022/09/24 11:50:13;;;;;;;18.90;14.10;;;15.90;83.80;;;;;;4999554;28;20030;-62
2022/09/24 11:53:09;;;;;;;18.35;14.25;;;16.00;83.80;;;;;;4987638;28;20061;-62
2022/09/24 11:55:52;;;;;;;17.77;13.00;;;16.00;83.80;;;;;;4995683;28;20046;-62
2022/09/24 11:58:28;;;;;;;20.30;14.10;;;16.00;83.80;;;;;;5006576;28;20045;-62
2022/09/24 12:01:13;;;;;;;19.95;14.02;;;16.00;83.80;;;;;;5025652;28;20033;-63
2022/09/24 12:04:01;;;;;;;17.52;13.27;;;16.00;83.80;;;;;;5032216;28;20064;-63
2022/09/24 12:07:01;;;;;;;15.77;12.10;;;16.00;83.70;;;;;;5026517;28;20415;-63
2022/09/24 12:09:35;;;;;;;17.40;12.52;;;16.00;83.70;;;;;;5031598;28;20038;-64
2022/09/24 12:12:11;;;;;;;17.45;12.93;;;16.00;83.70;;;;;;5030863;28;20036;-63
2022/09/24 12:15:04;;;;;;;18.92;13.55;;;16.00;83.70;;;;;;5070281;28;20059;-63
2022/09/24 12:17:38;;;;;;;20.33;13.65;;;16.10;83.80;;;;;;5111122;27;20027;-62
2022/09/24 12:20:19;;;;;;;18.95;13.88;;;16.10;83.80;;;;;;5114384;28;20015;-63
2022/09/24 12:22:48;;;;;;;15.18;11.95;;;16.10;83.80;;;;;;5114366;28;20031;-63
2022/09/24 12:25:14;;;;;;;16.42;12.95;;;16.10;83.80;;;;;;5111878;28;20023;-63
2022/09/24 12:27:41;;;;;;;16.42;12.10;;;16.10;83.80;;;;;;5114608;28;20027;-62
2022/09/24 12:33:12;;;;;;;16.05;11.57;;;16.20;83.70;;;;;;5113149;28;20030;-63
2022/09/24 12:35:47;;;;;;;15.15;11.38;;;16.20;83.60;;;;;;5113935;28;20055;-62
2022/09/24 12:38:34;;;;;;;15.20;11.13;;;16.20;83.60;;;;;;5113085;28;20337;-63
2022/09/24 12:41:02;;;;;;;15.02;11.20;;;16.20;83.60;;;;;;5111421;28;20364;-63
2022/09/24 12:43:36;;;;;;;13.75;10.90;;;16.20;83.60;;;;;;5116448;28;20019;-63
2022/09/24 12:46:04;;;;;;;17.08;11.82;;;16.20;83.60;;;;;;5113753;28;20016;-62
2022/09/24 12:48:34;;;;;;;16.67;11.38;;;16.20;83.60;;;;;;5114252;28;20096;-63
2022/09/24 12:51:03;;;;;;;15.80;11.88;;;16.20;83.70;;;;;;5112740;28;20038;-63
2022/09/24 12:53:35;;;;;;;15.40;11.45;;;16.20;83.70;;;;;;5112890;28;20035;-64
2022/09/24 12:56:03;;;;;;;17.05;12.60;;;16.20;83.70;;;;;;5106872;28;20115;-64
2022/09/24 12:58:34;;;;;;;16.50;12.50;;;16.20;83.70;;;;;;5114323;28;20442;-63
2022/09/24 13:01:23;;;;;;;17.30;12.90;;;16.20;83.60;;;;;;5114300;28;20028;-62
2022/09/24 13:04:13;;;;;;;17.27;12.23;;;16.20;83.60;;;;;;5109538;28;20028;-64
2022/09/24 13:06:43;;;;;;;16.75;12.35;;;16.20;83.60;;;;;;5115281;28;20027;-64